SFP1923 KSYR-KRME
Flight info
| Callsign | SFP1923 |
|---|---|
| Flight time | 0h 16m |
| Altitude | VFR/065 |
| Route | SYR DINES ROC |
| Aircraft | COL4/L-VGD/C |
Departure
| Time | 2026-04-24 00:38 |
|---|---|
| Airport | Syracuse Hancock International Airport (KSYR) |
Arrival
| Time | 2026-04-24 00:54 |
|---|---|
| Airport | Griffiss International Airport (KRME) |
| Time | Latitude | Longitude | Altitude | Speed | Heading |
|---|---|---|---|---|---|
| 2026-04-24 00:38 | 43.13436 | -76.23052 | 6104 ft | 90 kts | 294° |
| 2026-04-24 00:38 | 43.13805 | -76.23724 | 6345 ft | 94 kts | 339° |
| 2026-04-24 00:39 | 43.14444 | -76.23200 | 5907 ft | 156 kts | 65° |
| 2026-04-24 00:39 | 43.14124 | -76.21528 | 5410 ft | 181 kts | 105° |
| 2026-04-24 00:39 | 43.13755 | -76.19854 | 4963 ft | 188 kts | 94° |
| 2026-04-24 00:39 | 43.13581 | -76.18034 | 4786 ft | 196 kts | 90° |
| 2026-04-24 00:40 | 43.13482 | -76.16131 | 4216 ft | 198 kts | 88° |
| 2026-04-24 00:40 | 43.13392 | -76.14335 | 4007 ft | 184 kts | 89° |
| 2026-04-24 00:40 | 43.13287 | -76.12587 | 3678 ft | 180 kts | 88° |
| 2026-04-24 00:40 | 43.13244 | -76.10978 | 3642 ft | 159 kts | 84° |
| 2026-04-24 00:41 | 43.13269 | -76.09476 | 3594 ft | 160 kts | 80° |
| 2026-04-24 00:41 | 43.13347 | -76.07924 | 3443 ft | 168 kts | 81° |
| 2026-04-24 00:41 | 43.13413 | -76.06273 | 3275 ft | 174 kts | 80° |
| 2026-04-24 00:41 | 43.13513 | -76.04653 | 3210 ft | 171 kts | 78° |
| 2026-04-24 00:42 | 43.13630 | -76.03008 | 3122 ft | 171 kts | 79° |
| 2026-04-24 00:42 | 43.13709 | -76.01409 | 3043 ft | 171 kts | 81° |
| 2026-04-24 00:42 | 43.13757 | -75.99771 | 2917 ft | 173 kts | 84° |
| 2026-04-24 00:42 | 43.13792 | -75.98124 | 2786 ft | 173 kts | 83° |
| 2026-04-24 00:43 | 43.13872 | -75.96461 | 2587 ft | 177 kts | 80° |
| 2026-04-24 00:43 | 43.13987 | -75.94771 | 2417 ft | 179 kts | 81° |
| 2026-04-24 00:43 | 43.14087 | -75.93061 | 2186 ft | 182 kts | 81° |
| 2026-04-24 00:43 | 43.14267 | -75.91341 | 1955 ft | 183 kts | 77° |
| 2026-04-24 00:44 | 43.14426 | -75.89613 | 1755 ft | 183 kts | 83° |
| 2026-04-24 00:44 | 43.14483 | -75.87882 | 1565 ft | 181 kts | 86° |
| 2026-04-24 00:44 | 43.14543 | -75.86169 | 1372 ft | 180 kts | 85° |
| 2026-04-24 00:44 | 43.14596 | -75.84465 | 1218 ft | 176 kts | 78° |
| 2026-04-24 00:45 | 43.14972 | -75.83000 | 1391 ft | 158 kts | 59° |
| 2026-04-24 00:45 | 43.15522 | -75.81719 | 1515 ft | 157 kts | 55° |
| 2026-04-24 00:45 | 43.16099 | -75.80382 | 1446 ft | 166 kts | 54° |
| 2026-04-24 00:45 | 43.16725 | -75.79062 | 1484 ft | 166 kts | 52° |
| 2026-04-24 00:46 | 43.17253 | -75.77665 | 1621 ft | 163 kts | 66° |
| 2026-04-24 00:46 | 43.17581 | -75.76185 | 1689 ft | 164 kts | 70° |
| 2026-04-24 00:46 | 43.17873 | -75.74675 | 1753 ft | 165 kts | 70° |
| 2026-04-24 00:46 | 43.18135 | -75.73117 | 1765 ft | 170 kts | 74° |
| 2026-04-24 00:47 | 43.18372 | -75.71519 | 1778 ft | 171 kts | 72° |
| 2026-04-24 00:47 | 43.18642 | -75.69961 | 1941 ft | 171 kts | 71° |
| 2026-04-24 00:47 | 43.18970 | -75.68378 | 2065 ft | 172 kts | 68° |
| 2026-04-24 00:47 | 43.19328 | -75.66788 | 2115 ft | 177 kts | 67° |
| 2026-04-24 00:48 | 43.19700 | -75.65157 | 2197 ft | 178 kts | 68° |
| 2026-04-24 00:48 | 43.20044 | -75.63541 | 2367 ft | 175 kts | 69° |
| 2026-04-24 00:48 | 43.20385 | -75.61892 | 2340 ft | 183 kts | 68° |
| 2026-04-24 00:48 | 43.20743 | -75.60278 | 2529 ft | 173 kts | 66° |
| 2026-04-24 00:49 | 43.21133 | -75.58711 | 2430 ft | 174 kts | 64° |
| 2026-04-24 00:49 | 43.21476 | -75.57063 | 2189 ft | 183 kts | 73° |
| 2026-04-24 00:49 | 43.21586 | -75.55431 | 2395 ft | 166 kts | 91° |
| 2026-04-24 00:49 | 43.21238 | -75.53859 | 2024 ft | 189 kts | 114° |
| 2026-04-24 00:50 | 43.19175 | -75.50346 | 2037 ft | 169 kts | 136° |
| 2026-04-24 00:51 | 43.16052 | -75.45054 | 1798 ft | 172 kts | 120° |
| 2026-04-24 00:51 | 43.15379 | -75.43698 | 1720 ft | 152 kts | 124° |
| 2026-04-24 00:52 | 43.14880 | -75.42727 | 1684 ft | 112 kts | 125° |
| 2026-04-24 00:52 | 43.14419 | -75.41871 | 1539 ft | 110 kts | 134° |
| 2026-04-24 00:52 | 43.13911 | -75.41109 | 1408 ft | 110 kts | 139° |
| 2026-04-24 00:52 | 43.13386 | -75.40362 | 1218 ft | 104 kts | 122° |
| 2026-04-24 00:53 | 43.13189 | -75.39410 | 1045 ft | 104 kts | 82° |
| 2026-04-24 00:53 | 43.13523 | -75.38638 | 1007 ft | 89 kts | 27° |
| 2026-04-24 00:53 | 43.14074 | -75.38487 | 1055 ft | 75 kts | 341° |
| 2026-04-24 00:53 | 43.14667 | -75.38453 | 938 ft | 86 kts | 357° |
| 2026-04-24 00:54 | 43.15204 | -75.38410 | 1005 ft | 74 kts | 355° |
| 2026-04-24 00:54 | 43.15203 | -75.38777 | 817 ft | 85 kts | 177° |
| 2026-04-24 00:54 | 43.14672 | -75.38449 | 728 ft | 77 kts | 142° |
| 2026-04-24 00:54 | 43.14347 | -75.38024 | 725 ft | 40 kts | 136° |
| 2026-04-24 00:55 | 43.14221 | -75.37883 | 728 ft | 18 kts | 140° |
| 2026-04-24 00:55 | 43.14207 | -75.37836 | 729 ft | 9 kts | 308° |
| 2026-04-24 00:55 | 43.14229 | -75.37874 | 728 ft | 0 kts | 308° |